sensor_id;sensor_type;location;lat;lon;timestamp;P1;P2;P0
67714;PMS7003;54505;44.022;20.458;2023-04-03T00:00:47;56.50;42.75;28.00
67714;PMS7003;54505;44.022;20.458;2023-04-03T00:03:17;62.00;48.50;31.00
67714;PMS7003;54505;44.022;20.458;2023-04-03T00:05:42;55.00;43.00;29.00
67714;PMS7003;54505;44.022;20.458;2023-04-03T00:08:08;61.75;47.50;31.50
67714;PMS7003;54505;44.022;20.458;2023-04-03T00:10:35;57.75;47.00;30.25
67714;PMS7003;54505;44.022;20.458;2023-04-03T00:13:01;60.75;48.00;32.25
67714;PMS7003;54505;44.022;20.458;2023-04-03T00:15:27;62.25;47.75;30.25
67714;PMS7003;54505;44.022;20.458;2023-04-03T00:17:53;56.25;46.25;29.25
67714;PMS7003;54505;44.022;20.458;2023-04-03T00:20:18;55.00;45.00;29.75
67714;PMS7003;54505;44.022;20.458;2023-04-03T00:22:44;56.25;46.75;31.25
67714;PMS7003;54505;44.022;20.458;2023-04-03T00:25:10;47.25;37.25;21.50
67714;PMS7003;54505;44.022;20.458;2023-04-03T00:27:36;52.50;44.25;28.75
67714;PMS7003;54505;44.022;20.458;2023-04-03T00:30:03;59.25;47.75;30.50
67714;PMS7003;54505;44.022;20.458;2023-04-03T00:32:28;52.75;41.75;27.00
67714;PMS7003;54505;44.022;20.458;2023-04-03T00:34:54;67.25;50.75;32.00
67714;PMS7003;54505;44.022;20.458;2023-04-03T00:37:20;68.00;53.25;33.00
67714;PMS7003;54505;44.022;20.458;2023-04-03T00:39:46;75.50;55.75;36.75
67714;PMS7003;54505;44.022;20.458;2023-04-03T00:42:11;91.50;65.00;40.25
67714;PMS7003;54505;44.022;20.458;2023-04-03T00:47:03;85.00;67.75;41.50
67714;PMS7003;54505;44.022;20.458;2023-04-03T00:49:31;87.50;70.00;41.50
67714;PMS7003;54505;44.022;20.458;2023-04-03T00:51:57;87.50;71.75;41.50
67714;PMS7003;54505;44.022;20.458;2023-04-03T00:54:23;101.25;79.50;47.50
67714;PMS7003;54505;44.022;20.458;2023-04-03T00:56:50;94.25;73.50;45.25
67714;PMS7003;54505;44.022;20.458;2023-04-03T00:59:18;93.75;82.50;50.25
67714;PMS7003;54505;44.022;20.458;2023-04-03T01:01:46;92.25;78.50;47.50
67714;PMS7003;54505;44.022;20.458;2023-04-03T01:04:31;86.50;69.75;44.25
67714;PMS7003;54505;44.022;20.458;2023-04-03T01:06:58;88.50;72.00;44.25
67714;PMS7003;54505;44.022;20.458;2023-04-03T01:09:26;97.75;75.25;45.75
67714;PMS7003;54505;44.022;20.458;2023-04-03T01:11:53;88.00;73.50;45.75
67714;PMS7003;54505;44.022;20.458;2023-04-03T01:14:19;78.75;59.50;38.50
67714;PMS7003;54505;44.022;20.458;2023-04-03T01:16:54;79.50;61.00;38.00
67714;PMS7003;54505;44.022;20.458;2023-04-03T01:19:20;65.00;53.00;33.25
67714;PMS7003;54505;44.022;20.458;2023-04-03T01:22:01;74.75;58.00;37.00
67714;PMS7003;54505;44.022;20.458;2023-04-03T01:24:34;70.50;56.25;37.00
67714;PMS7003;54505;44.022;20.458;2023-04-03T01:27:03;67.75;54.00;36.75
67714;PMS7003;54505;44.022;20.458;2023-04-03T01:29:29;69.75;51.50;34.75
67714;PMS7003;54505;44.022;20.458;2023-04-03T01:31:56;61.75;49.50;32.25
67714;PMS7003;54505;44.022;20.458;2023-04-03T01:34:22;58.00;45.25;30.50
67714;PMS7003;54505;44.022;20.458;2023-04-03T01:36:48;51.75;43.25;28.00
67714;PMS7003;54505;44.022;20.458;2023-04-03T01:39:14;54.75;41.50;27.50
67714;PMS7003;54505;44.022;20.458;2023-04-03T01:41:40;56.50;45.50;30.25
67714;PMS7003;54505;44.022;20.458;2023-04-03T01:44:06;59.00;47.00;31.75
67714;PMS7003;54505;44.022;20.458;2023-04-03T01:46:31;59.25;48.00;31.25
67714;PMS7003;54505;44.022;20.458;2023-04-03T01:48:57;58.50;46.25;30.25
67714;PMS7003;54505;44.022;20.458;2023-04-03T01:51:23;63.25;48.75;32.00
67714;PMS7003;54505;44.022;20.458;2023-04-03T01:53:49;58.00;49.75;32.50
67714;PMS7003;54505;44.022;20.458;2023-04-03T01:56:14;63.75;50.00;32.25
67714;PMS7003;54505;44.022;20.458;2023-04-03T01:58:40;57.75;48.50;31.75
67714;PMS7003;54505;44.022;20.458;2023-04-03T02:01:05;61.00;45.00;31.25
67714;PMS7003;54505;44.022;20.458;2023-04-03T02:03:32;54.50;45.00;29.75
67714;PMS7003;54505;44.022;20.458;2023-04-03T02:05:57;59.50;47.25;31.50
67714;PMS7003;54505;44.022;20.458;2023-04-03T02:08:23;65.25;49.00;32.25
67714;PMS7003;54505;44.022;20.458;2023-04-03T02:10:49;58.00;45.75;29.25
67714;PMS7003;54505;44.022;20.458;2023-04-03T02:13:15;56.75;45.50;31.25
67714;PMS7003;54505;44.022;20.458;2023-04-03T02:15:41;53.50;45.50;31.25
67714;PMS7003;54505;44.022;20.458;2023-04-03T02:18:07;61.50;46.00;30.00
67714;PMS7003;54505;44.022;20.458;2023-04-03T02:20:33;57.75;46.50;29.50
67714;PMS7003;54505;44.022;20.458;2023-04-03T02:22:59;40.75;29.50;13.00
67714;PMS7003;54505;44.022;20.458;2023-04-03T02:25:24;49.00;40.75;27.75
67714;PMS7003;54505;44.022;20.458;2023-04-03T02:27:50;52.75;40.00;27.00
67714;PMS7003;54505;44.022;20.458;2023-04-03T02:30:15;44.25;36.75;25.25
67714;PMS7003;54505;44.022;20.458;2023-04-03T02:32:42;44.50;38.00;23.75
67714;PMS7003;54505;44.022;20.458;2023-04-03T02:35:08;47.00;39.50;26.00
67714;PMS7003;54505;44.022;20.458;2023-04-03T02:37:34;46.25;36.75;23.50
67714;PMS7003;54505;44.022;20.458;2023-04-03T02:39:59;51.00;39.00;24.50
67714;PMS7003;54505;44.022;20.458;2023-04-03T02:42:25;48.75;41.00;24.25
67714;PMS7003;54505;44.022;20.458;2023-04-03T02:44:51;53.50;38.75;24.25
67714;PMS7003;54505;44.022;20.458;2023-04-03T02:47:17;57.00;44.00;26.00
67714;PMS7003;54505;44.022;20.458;2023-04-03T02:49:42;53.00;37.50;23.50
67714;PMS7003;54505;44.022;20.458;2023-04-03T02:52:12;58.75;44.00;25.00
67714;PMS7003;54505;44.022;20.458;2023-04-03T02:54:37;58.00;43.50;25.00
67714;PMS7003;54505;44.022;20.458;2023-04-03T02:57:03;60.50;45.00;30.00
67714;PMS7003;54505;44.022;20.458;2023-04-03T02:59:28;57.50;46.25;26.50
67714;PMS7003;54505;44.022;20.458;2023-04-03T03:01:55;63.25;47.75;27.00
67714;PMS7003;54505;44.022;20.458;2023-04-03T03:04:20;61.50;47.50;27.25
67714;PMS7003;54505;44.022;20.458;2023-04-03T03:06:46;57.00;44.00;26.50
67714;PMS7003;54505;44.022;20.458;2023-04-03T03:09:12;61.25;44.75;27.25
67714;PMS7003;54505;44.022;20.458;2023-04-03T03:11:38;64.25;47.00;26.75
67714;PMS7003;54505;44.022;20.458;2023-04-03T03:14:04;53.75;38.75;23.00
67714;PMS7003;54505;44.022;20.458;2023-04-03T03:16:30;51.00;38.75;22.75
67714;PMS7003;54505;44.022;20.458;2023-04-03T03:18:55;38.00;31.75;18.75
67714;PMS7003;54505;44.022;20.458;2023-04-03T03:21:21;29.75;27.75;16.25
67714;PMS7003;54505;44.022;20.458;2023-04-03T03:23:47;20.75;18.00;11.25
67714;PMS7003;54505;44.022;20.458;2023-04-03T03:26:12;25.00;14.75;7.75
67714;PMS7003;54505;44.022;20.458;2023-04-03T03:28:38;20.50;16.50;11.25
67714;PMS7003;54505;44.022;20.458;2023-04-03T03:31:05;31.00;27.75;17.75
67714;PMS7003;54505;44.022;20.458;2023-04-03T03:33:30;27.50;25.00;16.75
67714;PMS7003;54505;44.022;20.458;2023-04-03T03:35:56;41.25;32.00;21.50
67714;PMS7003;54505;44.022;20.458;2023-04-03T03:38:22;41.00;32.00;20.50
67714;PMS7003;54505;44.022;20.458;2023-04-03T03:40:48;37.25;30.50;17.75
67714;PMS7003;54505;44.022;20.458;2023-04-03T03:43:14;51.25;34.00;19.75
67714;PMS7003;54505;44.022;20.458;2023-04-03T03:45:40;44.25;34.50;20.75
67714;PMS7003;54505;44.022;20.458;2023-04-03T03:48:05;45.00;36.50;23.00
67714;PMS7003;54505;44.022;20.458;2023-04-03T03:50:31;39.75;33.00;21.00
67714;PMS7003;54505;44.022;20.458;2023-04-03T03:52:56;50.25;37.00;19.00
67714;PMS7003;54505;44.022;20.458;2023-04-03T03:55:22;33.25;26.50;19.00
67714;PMS7003;54505;44.022;20.458;2023-04-03T03:57:48;39.75;35.50;18.00
67714;PMS7003;54505;44.022;20.458;2023-04-03T04:00:13;43.00;31.25;15.25
67714;PMS7003;54505;44.022;20.458;2023-04-03T04:02:39;43.25;34.50;20.00
67714;PMS7003;54505;44.022;20.458;2023-04-03T04:05:05;37.75;27.00;15.50
67714;PMS7003;54505;44.022;20.458;2023-04-03T04:07:31;34.75;33.25;18.75
67714;PMS7003;54505;44.022;20.458;2023-04-03T04:09:57;41.50;35.50;23.75
67714;PMS7003;54505;44.022;20.458;2023-04-03T04:12:22;28.75;24.75;15.50
67714;PMS7003;54505;44.022;20.458;2023-04-03T04:14:48;31.25;27.75;17.75
67714;PMS7003;54505;44.022;20.458;2023-04-03T04:17:13;14.50;14.50;9.50
67714;PMS7003;54505;44.022;20.458;2023-04-03T04:19:39;35.50;32.00;17.00
67714;PMS7003;54505;44.022;20.458;2023-04-03T04:22:05;37.25;33.00;19.00
67714;PMS7003;54505;44.022;20.458;2023-04-03T04:24:32;28.75;24.25;16.75
67714;PMS7003;54505;44.022;20.458;2023-04-03T04:26:57;36.50;33.75;16.25
67714;PMS7003;54505;44.022;20.458;2023-04-03T04:29:23;31.50;28.00;17.75
67714;PMS7003;54505;44.022;20.458;2023-04-03T04:31:49;36.25;25.25;14.00
67714;PMS7003;54505;44.022;20.458;2023-04-03T04:34:15;41.75;28.25;17.50
67714;PMS7003;54505;44.022;20.458;2023-04-03T04:36:41;30.75;24.75;16.25
67714;PMS7003;54505;44.022;20.458;2023-04-03T04:39:07;31.00;27.25;15.75
67714;PMS7003;54505;44.022;20.458;2023-04-03T04:41:33;38.75;29.75;18.25
67714;PMS7003;54505;44.022;20.458;2023-04-03T04:43:58;23.50;22.75;17.00
67714;PMS7003;54505;44.022;20.458;2023-04-03T04:46:24;35.75;29.75;18.25
67714;PMS7003;54505;44.022;20.458;2023-04-03T04:48:50;41.00;34.75;23.75
67714;PMS7003;54505;44.022;20.458;2023-04-03T04:51:16;41.00;36.00;22.50
67714;PMS7003;54505;44.022;20.458;2023-04-03T04:53:42;48.50;37.25;22.75
67714;PMS7003;54505;44.022;20.458;2023-04-03T04:56:07;43.25;34.75;22.00
67714;PMS7003;54505;44.022;20.458;2023-04-03T04:58:33;58.00;46.25;29.25
67714;PMS7003;54505;44.022;20.458;2023-04-03T05:01:02;41.00;36.00;22.50
67714;PMS7003;54505;44.022;20.458;2023-04-03T05:03:28;40.50;35.75;22.50
67714;PMS7003;54505;44.022;20.458;2023-04-03T05:05:54;39.75;35.00;19.50
67714;PMS7003;54505;44.022;20.458;2023-04-03T05:08:20;35.75;28.25;16.00
67714;PMS7003;54505;44.022;20.458;2023-04-03T05:10:46;45.25;39.50;24.00
67714;PMS7003;54505;44.022;20.458;2023-04-03T05:13:12;53.50;40.75;25.00
67714;PMS7003;54505;44.022;20.458;2023-04-03T05:15:37;45.50;35.75;21.25
67714;PMS7003;54505;44.022;20.458;2023-04-03T05:18:03;30.50;29.75;21.50
67714;PMS7003;54505;44.022;20.458;2023-04-03T05:20:30;51.25;38.50;24.75
67714;PMS7003;54505;44.022;20.458;2023-04-03T05:22:56;41.50;32.25;20.00
67714;PMS7003;54505;44.022;20.458;2023-04-03T05:25:22;55.50;40.25;26.50
67714;PMS7003;54505;44.022;20.458;2023-04-03T05:27:48;39.25;31.50;19.75
67714;PMS7003;54505;44.022;20.458;2023-04-03T05:30:13;40.00;29.00;20.25
67714;PMS7003;54505;44.022;20.458;2023-04-03T05:32:39;40.50;33.75;19.00
67714;PMS7003;54505;44.022;20.458;2023-04-03T05:35:05;44.25;38.75;24.75
67714;PMS7003;54505;44.022;20.458;2023-04-03T05:37:31;46.25;36.75;24.75
67714;PMS7003;54505;44.022;20.458;2023-04-03T05:39:56;31.25;30.00;19.00
67714;PMS7003;54505;44.022;20.458;2023-04-03T05:42:22;32.25;30.00;18.75
67714;PMS7003;54505;44.022;20.458;2023-04-03T05:44:48;32.00;20.25;12.25
67714;PMS7003;54505;44.022;20.458;2023-04-03T05:47:16;47.50;38.75;23.50
67714;PMS7003;54505;44.022;20.458;2023-04-03T05:49:41;49.25;36.75;26.00
67714;PMS7003;54505;44.022;20.458;2023-04-03T05:55:05;37.25;31.00;20.50
67714;PMS7003;54505;44.022;20.458;2023-04-03T05:57:32;33.00;28.25;18.00
67714;PMS7003;54505;44.022;20.458;2023-04-03T05:59:57;28.25;26.00;13.75
67714;PMS7003;54505;44.022;20.458;2023-04-03T06:02:23;28.00;21.00;13.00
67714;PMS7003;54505;44.022;20.458;2023-04-03T06:04:52;39.25;33.50;21.50
67714;PMS7003;54505;44.022;20.458;2023-04-03T06:07:19;50.75;39.00;27.00
67714;PMS7003;54505;44.022;20.458;2023-04-03T06:09:46;26.00;24.25;19.00
67714;PMS7003;54505;44.022;20.458;2023-04-03T06:15:09;24.25;21.75;13.00
67714;PMS7003;54505;44.022;20.458;2023-04-03T06:17:36;28.25;19.75;13.50
67714;PMS7003;54505;44.022;20.458;2023-04-03T06:20:02;24.25;20.75;12.00
67714;PMS7003;54505;44.022;20.458;2023-04-03T06:22:29;28.25;25.00;17.75
67714;PMS7003;54505;44.022;20.458;2023-04-03T06:24:55;22.50;19.00;13.25
67714;PMS7003;54505;44.022;20.458;2023-04-03T06:27:21;27.25;20.50;12.75
67714;PMS7003;54505;44.022;20.458;2023-04-03T06:29:47;29.50;20.25;14.00
67714;PMS7003;54505;44.022;20.458;2023-04-03T06:32:14;16.75;16.75;11.00
67714;PMS7003;54505;44.022;20.458;2023-04-03T06:34:40;21.00;17.00;11.00
67714;PMS7003;54505;44.022;20.458;2023-04-03T06:37:12;28.00;23.00;17.00
67714;PMS7003;54505;44.022;20.458;2023-04-03T06:39:39;20.00;19.50;12.50
67714;PMS7003;54505;44.022;20.458;2023-04-03T06:42:05;19.00;17.75;10.75
67714;PMS7003;54505;44.022;20.458;2023-04-03T06:44:31;27.00;21.75;16.50
67714;PMS7003;54505;44.022;20.458;2023-04-03T06:46:59;24.00;19.75;14.50
67714;PMS7003;54505;44.022;20.458;2023-04-03T06:49:25;23.75;21.75;15.50
67714;PMS7003;54505;44.022;20.458;2023-04-03T06:51:51;28.75;25.25;17.50
67714;PMS7003;54505;44.022;20.458;2023-04-03T06:54:17;16.00;13.50;7.25
67714;PMS7003;54505;44.022;20.458;2023-04-03T06:56:44;22.25;18.00;11.75
67714;PMS7003;54505;44.022;20.458;2023-04-03T06:59:10;48.25;40.00;27.25
67714;PMS7003;54505;44.022;20.458;2023-04-03T07:01:38;30.75;25.75;16.75
67714;PMS7003;54505;44.022;20.458;2023-04-03T07:04:04;23.75;16.50;11.50
67714;PMS7003;54505;44.022;20.458;2023-04-03T07:06:29;19.75;18.50;11.50
67714;PMS7003;54505;44.022;20.458;2023-04-03T07:08:56;26.25;26.25;17.50
67714;PMS7003;54505;44.022;20.458;2023-04-03T07:11:22;31.00;30.00;24.25
67714;PMS7003;54505;44.022;20.458;2023-04-03T07:13:47;17.75;15.25;11.00
67714;PMS7003;54505;44.022;20.458;2023-04-03T07:16:13;17.25;16.75;12.00
67714;PMS7003;54505;44.022;20.458;2023-04-03T07:18:40;22.50;19.00;12.00
67714;PMS7003;54505;44.022;20.458;2023-04-03T07:21:07;16.75;16.75;12.00
67714;PMS7003;54505;44.022;20.458;2023-04-03T07:23:32;22.50;15.25;11.00
67714;PMS7003;54505;44.022;20.458;2023-04-03T07:25:58;22.00;21.25;15.00
67714;PMS7003;54505;44.022;20.458;2023-04-03T07:28:24;18.75;18.25;12.00
67714;PMS7003;54505;44.022;20.458;2023-04-03T07:30:51;24.75;22.00;12.75
67714;PMS7003;54505;44.022;20.458;2023-04-03T07:33:17;25.25;22.25;14.25
67714;PMS7003;54505;44.022;20.458;2023-04-03T07:35:43;24.00;23.00;17.00
67714;PMS7003;54505;44.022;20.458;2023-04-03T07:38:10;17.25;14.50;10.00
67714;PMS7003;54505;44.022;20.458;2023-04-03T07:40:36;27.75;22.75;17.75
67714;PMS7003;54505;44.022;20.458;2023-04-03T07:43:01;27.25;20.25;14.25
67714;PMS7003;54505;44.022;20.458;2023-04-03T07:45:27;22.25;17.00;11.50
67714;PMS7003;54505;44.022;20.458;2023-04-03T07:47:53;21.50;19.75;13.50
67714;PMS7003;54505;44.022;20.458;2023-04-03T07:50:19;24.25;20.25;11.75
67714;PMS7003;54505;44.022;20.458;2023-04-03T07:52:44;19.00;17.25;13.25
67714;PMS7003;54505;44.022;20.458;2023-04-03T07:55:11;17.25;11.75;10.50
67714;PMS7003;54505;44.022;20.458;2023-04-03T07:57:36;26.25;24.50;17.50
67714;PMS7003;54505;44.022;20.458;2023-04-03T08:00:03;18.50;16.75;11.00
67714;PMS7003;54505;44.022;20.458;2023-04-03T08:02:29;18.25;17.00;12.00
67714;PMS7003;54505;44.022;20.458;2023-04-03T08:04:57;18.75;15.75;11.25
67714;PMS7003;54505;44.022;20.458;2023-04-03T08:07:23;18.75;17.50;12.75
67714;PMS7003;54505;44.022;20.458;2023-04-03T08:09:49;24.25;20.25;15.00
67714;PMS7003;54505;44.022;20.458;2023-04-03T08:12:15;23.75;23.00;16.00
67714;PMS7003;54505;44.022;20.458;2023-04-03T08:14:40;19.00;15.50;11.50
67714;PMS7003;54505;44.022;20.458;2023-04-03T08:17:06;26.25;21.50;15.75
67714;PMS7003;54505;44.022;20.458;2023-04-03T08:19:35;22.25;20.50;14.25
67714;PMS7003;54505;44.022;20.458;2023-04-03T08:22:00;24.75;19.75;13.75
67714;PMS7003;54505;44.022;20.458;2023-04-03T08:24:28;14.50;13.50;12.75
67714;PMS7003;54505;44.022;20.458;2023-04-03T08:26:54;24.00;22.50;15.00
67714;PMS7003;54505;44.022;20.458;2023-04-03T08:29:20;34.50;30.75;17.00
67714;PMS7003;54505;44.022;20.458;2023-04-03T08:31:46;30.25;27.25;18.00
67714;PMS7003;54505;44.022;20.458;2023-04-03T08:34:13;29.75;26.50;18.00
67714;PMS7003;54505;44.022;20.458;2023-04-03T08:36:39;30.00;23.00;15.00
67714;PMS7003;54505;44.022;20.458;2023-04-03T08:39:05;16.75;16.75;13.00
67714;PMS7003;54505;44.022;20.458;2023-04-03T08:41:44;22.50;17.50;13.25
67714;PMS7003;54505;44.022;20.458;2023-04-03T08:46:47;24.00;21.75;14.50
67714;PMS7003;54505;44.022;20.458;2023-04-03T08:49:21;34.75;28.00;18.50
67714;PMS7003;54505;44.022;20.458;2023-04-03T08:51:49;27.75;24.25;17.00
67714;PMS7003;54505;44.022;20.458;2023-04-03T08:54:40;23.50;22.25;12.75
67714;PMS7003;54505;44.022;20.458;2023-04-03T08:57:03;22.25;20.75;15.50
67714;PMS7003;54505;44.022;20.458;2023-04-03T08:59:32;29.00;26.75;17.50
67714;PMS7003;54505;44.022;20.458;2023-04-03T09:01:58;20.75;20.00;14.25
67714;PMS7003;54505;44.022;20.458;2023-04-03T09:04:27;24.50;21.50;13.00
67714;PMS7003;54505;44.022;20.458;2023-04-03T09:06:59;19.75;15.25;10.25
67714;PMS7003;54505;44.022;20.458;2023-04-03T09:09:31;29.00;28.50;20.25
67714;PMS7003;54505;44.022;20.458;2023-04-03T09:14:42;70.00;52.75;37.50
67714;PMS7003;54505;44.022;20.458;2023-04-03T09:22:39;22.50;22.00;15.00
67714;PMS7003;54505;44.022;20.458;2023-04-03T09:25:13;29.50;27.50;20.50
67714;PMS7003;54505;44.022;20.458;2023-04-03T09:27:40;21.25;20.00;15.50
67714;PMS7003;54505;44.022;20.458;2023-04-03T09:30:13;32.50;28.50;20.00
67714;PMS7003;54505;44.022;20.458;2023-04-03T09:32:40;18.75;16.00;11.75
67714;PMS7003;54505;44.022;20.458;2023-04-03T09:35:23;25.50;21.00;16.00
67714;PMS7003;54505;44.022;20.458;2023-04-03T09:37:50;22.00;20.25;12.50
67714;PMS7003;54505;44.022;20.458;2023-04-03T09:40:36;20.75;17.00;14.75
67714;PMS7003;54505;44.022;20.458;2023-04-03T09:45:41;24.75;18.00;12.00
67714;PMS7003;54505;44.022;20.458;2023-04-03T09:48:08;16.00;14.75;10.00
67714;PMS7003;54505;44.022;20.458;2023-04-03T09:50:35;24.25;19.00;14.75
67714;PMS7003;54505;44.022;20.458;2023-04-03T09:53:04;34.75;31.25;17.50
67714;PMS7003;54505;44.022;20.458;2023-04-03T09:55:30;25.50;20.75;14.50
67714;PMS7003;54505;44.022;20.458;2023-04-03T09:58:00;19.00;15.25;9.50
67714;PMS7003;54505;44.022;20.458;2023-04-03T10:00:28;27.25;16.75;12.00
67714;PMS7003;54505;44.022;20.458;2023-04-03T10:02:56;40.25;34.50;24.00
67714;PMS7003;54505;44.022;20.458;2023-04-03T10:05:38;40.25;29.50;20.00
67714;PMS7003;54505;44.022;20.458;2023-04-03T10:10:47;37.75;34.75;24.50
67714;PMS7003;54505;44.022;20.458;2023-04-03T10:13:17;39.00;36.25;24.25
67714;PMS7003;54505;44.022;20.458;2023-04-03T10:15:49;46.75;30.25;21.50
67714;PMS7003;54505;44.022;20.458;2023-04-03T10:21:08;26.00;24.50;15.50
67714;PMS7003;54505;44.022;20.458;2023-04-03T10:31:21;21.75;19.25;13.75
67714;PMS7003;54505;44.022;20.458;2023-04-03T10:41:16;23.50;20.00;14.75
67714;PMS7003;54505;44.022;20.458;2023-04-03T10:43:50;29.00;23.75;15.25
67714;PMS7003;54505;44.022;20.458;2023-04-03T10:46:23;24.50;22.50;16.00
67714;PMS7003;54505;44.022;20.458;2023-04-03T10:53:58;23.75;23.00;16.50
67714;PMS7003;54505;44.022;20.458;2023-04-03T10:56:42;30.50;26.25;17.00
67714;PMS7003;54505;44.022;20.458;2023-04-03T10:59:18;57.50;43.25;28.00
67714;PMS7003;54505;44.022;20.458;2023-04-03T11:01:48;30.50;23.75;12.50
67714;PMS7003;54505;44.022;20.458;2023-04-03T11:04:15;42.25;37.00;26.00
67714;PMS7003;54505;44.022;20.458;2023-04-03T11:06:45;21.00;16.50;7.00
67714;PMS7003;54505;44.022;20.458;2023-04-03T11:11:38;29.25;28.50;19.50
67714;PMS7003;54505;44.022;20.458;2023-04-03T11:14:09;26.75;24.00;16.25
67714;PMS7003;54505;44.022;20.458;2023-04-03T11:16:43;35.50;25.00;16.75
67714;PMS7003;54505;44.022;20.458;2023-04-03T11:19:13;40.75;33.25;21.50
67714;PMS7003;54505;44.022;20.458;2023-04-03T11:21:44;46.25;39.00;25.25
67714;PMS7003;54505;44.022;20.458;2023-04-03T11:27:09;56.25;40.50;28.50
67714;PMS7003;54505;44.022;20.458;2023-04-03T11:29:38;55.50;45.50;28.75
67714;PMS7003;54505;44.022;20.458;2023-04-03T11:34:50;49.75;35.75;23.50
67714;PMS7003;54505;44.022;20.458;2023-04-03T11:37:33;46.25;31.75;21.00
67714;PMS7003;54505;44.022;20.458;2023-04-03T11:40:05;42.25;34.50;22.00
67714;PMS7003;54505;44.022;20.458;2023-04-03T11:42:36;69.00;51.75;36.00
67714;PMS7003;54505;44.022;20.458;2023-04-03T12:13:39;54.75;44.50;28.50
67714;PMS7003;54505;44.022;20.458;2023-04-03T12:16:06;40.75;37.50;26.00
67714;PMS7003;54505;44.022;20.458;2023-04-03T12:18:53;62.00;51.00;32.25
67714;PMS7003;54505;44.022;20.458;2023-04-03T12:23:57;56.00;45.25;28.75
67714;PMS7003;54505;44.022;20.458;2023-04-03T12:26:27;67.25;48.25;33.75
67714;PMS7003;54505;44.022;20.458;2023-04-03T12:28:53;63.75;47.25;30.00
67714;PMS7003;54505;44.022;20.458;2023-04-03T12:31:21;50.00;41.75;26.75
67714;PMS7003;54505;44.022;20.458;2023-04-03T12:36:18;50.00;40.00;25.75
67714;PMS7003;54505;44.022;20.458;2023-04-03T12:41:43;67.25;55.00;35.25
67714;PMS7003;54505;44.022;20.458;2023-04-03T12:46:44;54.75;43.00;28.50
67714;PMS7003;54505;44.022;20.458;2023-04-03T12:51:45;63.50;50.00;31.00
67714;PMS7003;54505;44.022;20.458;2023-04-03T12:57:08;65.25;47.25;35.25
67714;PMS7003;54505;44.022;20.458;2023-04-03T12:59:34;73.75;55.00;37.25
67714;PMS7003;54505;44.022;20.458;2023-04-03T13:02:01;70.00;55.25;35.25
67714;PMS7003;54505;44.022;20.458;2023-04-03T13:04:27;71.50;55.75;36.00
67714;PMS7003;54505;44.022;20.458;2023-04-03T13:06:53;61.25;48.00;32.25
67714;PMS7003;54505;44.022;20.458;2023-04-03T13:09:23;66.25;51.25;32.25
67714;PMS7003;54505;44.022;20.458;2023-04-03T13:11:51;64.50;50.75;32.50
67714;PMS7003;54505;44.022;20.458;2023-04-03T13:14:19;68.00;54.25;35.50
67714;PMS7003;54505;44.022;20.458;2023-04-03T13:16:55;61.50;48.75;32.75
67714;PMS7003;54505;44.022;20.458;2023-04-03T13:19:22;56.75;42.00;28.75
67714;PMS7003;54505;44.022;20.458;2023-04-03T13:21:48;65.75;47.25;29.50
67714;PMS7003;54505;44.022;20.458;2023-04-03T13:24:15;61.25;46.25;28.00
67714;PMS7003;54505;44.022;20.458;2023-04-03T13:26:41;57.25;45.00;28.00
67714;PMS7003;54505;44.022;20.458;2023-04-03T13:29:14;59.00;45.50;30.75
67714;PMS7003;54505;44.022;20.458;2023-04-03T13:31:43;64.00;49.00;30.00
67714;PMS7003;54505;44.022;20.458;2023-04-03T13:36:43;55.50;42.25;29.25
67714;PMS7003;54505;44.022;20.458;2023-04-03T13:41:37;61.00;48.75;31.00
67714;PMS7003;54505;44.022;20.458;2023-04-03T13:44:16;60.00;50.25;31.50
67714;PMS7003;54505;44.022;20.458;2023-04-03T13:46:42;52.50;42.75;27.50
67714;PMS7003;54505;44.022;20.458;2023-04-03T13:51:52;53.75;41.25;25.50
67714;PMS7003;54505;44.022;20.458;2023-04-03T13:54:22;54.25;45.50;28.75
67714;PMS7003;54505;44.022;20.458;2023-04-03T13:56:55;48.00;41.75;26.75
67714;PMS7003;54505;44.022;20.458;2023-04-03T13:59:23;52.50;41.75;27.50
67714;PMS7003;54505;44.022;20.458;2023-04-03T14:01:52;54.50;41.00;28.00
67714;PMS7003;54505;44.022;20.458;2023-04-03T14:04:22;51.25;41.25;28.00
67714;PMS7003;54505;44.022;20.458;2023-04-03T14:06:48;60.25;45.00;27.25
67714;PMS7003;54505;44.022;20.458;2023-04-03T14:09:15;70.00;52.00;34.75
67714;PMS7003;54505;44.022;20.458;2023-04-03T14:11:42;58.00;44.75;29.00
67714;PMS7003;54505;44.022;20.458;2023-04-03T14:14:13;63.50;48.25;29.75
67714;PMS7003;54505;44.022;20.458;2023-04-03T14:16:40;59.50;48.50;31.00
67714;PMS7003;54505;44.022;20.458;2023-04-03T14:19:06;74.75;57.75;39.00
67714;PMS7003;54505;44.022;20.458;2023-04-03T14:21:32;70.50;53.50;30.75
67714;PMS7003;54505;44.022;20.458;2023-04-03T14:23:59;70.50;51.75;31.50
67714;PMS7003;54505;44.022;20.458;2023-04-03T14:26:24;67.00;50.00;32.25
67714;PMS7003;54505;44.022;20.458;2023-04-03T14:28:53;61.75;46.25;28.50
67714;PMS7003;54505;44.022;20.458;2023-04-03T14:31:19;66.50;49.50;29.75
67714;PMS7003;54505;44.022;20.458;2023-04-03T14:33:45;75.00;56.50;35.00
67714;PMS7003;54505;44.022;20.458;2023-04-03T14:36:16;71.25;55.75;35.50
67714;PMS7003;54505;44.022;20.458;2023-04-03T14:38:43;68.50;52.25;35.25
67714;PMS7003;54505;44.022;20.458;2023-04-03T14:41:10;63.50;49.00;32.50
67714;PMS7003;54505;44.022;20.458;2023-04-03T14:43:37;66.00;48.75;31.00
67714;PMS7003;54505;44.022;20.458;2023-04-03T14:46:04;64.50;50.75;30.75
67714;PMS7003;54505;44.022;20.458;2023-04-03T14:48:29;59.75;48.00;31.50
67714;PMS7003;54505;44.022;20.458;2023-04-03T14:50:56;61.50;49.25;30.25
67714;PMS7003;54505;44.022;20.458;2023-04-03T14:53:21;73.25;51.50;31.25
67714;PMS7003;54505;44.022;20.458;2023-04-03T14:55:50;78.75;54.75;36.00
67714;PMS7003;54505;44.022;20.458;2023-04-03T14:58:16;69.75;53.75;35.00
67714;PMS7003;54505;44.022;20.458;2023-04-03T15:00:43;65.00;48.00;28.25
67714;PMS7003;54505;44.022;20.458;2023-04-03T15:03:12;62.25;46.50;30.75
67714;PMS7003;54505;44.022;20.458;2023-04-03T15:05:38;68.00;49.25;29.25
67714;PMS7003;54505;44.022;20.458;2023-04-03T15:08:03;61.75;48.00;31.00
67714;PMS7003;54505;44.022;20.458;2023-04-03T15:10:30;74.50;53.75;32.25
67714;PMS7003;54505;44.022;20.458;2023-04-03T15:12:56;70.00;54.75;34.75
67714;PMS7003;54505;44.022;20.458;2023-04-03T15:15:22;71.25;53.50;33.75
67714;PMS7003;54505;44.022;20.458;2023-04-03T15:17:50;68.00;51.50;32.25
67714;PMS7003;54505;44.022;20.458;2023-04-03T15:20:19;64.25;50.00;30.25
67714;PMS7003;54505;44.022;20.458;2023-04-03T15:22:46;63.75;49.50;30.75